In Rescue
 
Open Full Screen Window  High Contrast Mode
September 21, 2020 11:25 PM EDT
Weather Information
Wind Direction
  ---
Wind Speed
  00 kt (0 mph)
Wind Gust
  00 kt (0 mph)
Altimeter
30.33 in
Visibility
10 SM
Temperature
09° C
48° F
Dewpoint
08° C
46° F
Humidity
94%
1hr Rain Fall
00.00 in.
24hr Rain Fall
00.00 in.
Sky Condition
Clear
VFR

METAR KTTF 220325Z AUTO 00000KT 10SM CLR 09/08 A3033 RMK AO2 T00850075

FAA Disclaimer: The data displayed is for advisory purposes only and is not to be used for flight planning or operations.